sensor_id;sensor_type;location;lat;lon;timestamp;temperature;humidity
48728;DHT22;34527;45.618;5.130;2023-02-07T00:00:12;2.80;99.90
48728;DHT22;34527;45.618;5.130;2023-02-07T00:02:42;2.70;99.90
48728;DHT22;34527;45.618;5.130;2023-02-07T00:05:08;2.70;99.90
48728;DHT22;34527;45.618;5.130;2023-02-07T00:07:33;2.70;99.90
48728;DHT22;34527;45.618;5.130;2023-02-07T00:09:59;2.70;99.90
48728;DHT22;34527;45.618;5.130;2023-02-07T00:12:24;2.70;99.90
48728;DHT22;34527;45.618;5.130;2023-02-07T00:14:50;2.70;99.90
48728;DHT22;34527;45.618;5.130;2023-02-07T00:17:16;2.60;99.90
48728;DHT22;34527;45.618;5.130;2023-02-07T00:19:41;2.50;99.90
48728;DHT22;34527;45.618;5.130;2023-02-07T00:22:07;2.50;99.90
48728;DHT22;34527;45.618;5.130;2023-02-07T00:24:33;2.50;99.90
48728;DHT22;34527;45.618;5.130;2023-02-07T00:26:58;2.30;99.90
48728;DHT22;34527;45.618;5.130;2023-02-07T00:29:24;2.30;99.90
48728;DHT22;34527;45.618;5.130;2023-02-07T00:31:49;2.30;99.90
48728;DHT22;34527;45.618;5.130;2023-02-07T00:34:15;2.20;99.90
48728;DHT22;34527;45.618;5.130;2023-02-07T00:36:41;2.20;99.90
48728;DHT22;34527;45.618;5.130;2023-02-07T00:39:12;2.20;99.90
48728;DHT22;34527;45.618;5.130;2023-02-07T00:41:39;2.20;99.90
48728;DHT22;34527;45.618;5.130;2023-02-07T00:44:05;2.10;99.90
48728;DHT22;34527;45.618;5.130;2023-02-07T00:46:31;2.10;99.90
48728;DHT22;34527;45.618;5.130;2023-02-07T00:48:58;2.20;99.90
48728;DHT22;34527;45.618;5.130;2023-02-07T00:51:24;2.20;99.90
48728;DHT22;34527;45.618;5.130;2023-02-07T00:53:55;2.20;99.90
48728;DHT22;34527;45.618;5.130;2023-02-07T00:56:23;2.20;99.90
48728;DHT22;34527;45.618;5.130;2023-02-07T00:58:49;2.20;99.90
48728;DHT22;34527;45.618;5.130;2023-02-07T01:01:14;2.10;99.90
48728;DHT22;34527;45.618;5.130;2023-02-07T01:03:40;2.10;99.90
48728;DHT22;34527;45.618;5.130;2023-02-07T01:06:07;2.10;99.90
48728;DHT22;34527;45.618;5.130;2023-02-07T01:08:33;2.20;99.90
48728;DHT22;34527;45.618;5.130;2023-02-07T01:11:04;2.20;99.90
48728;DHT22;34527;45.618;5.130;2023-02-07T01:13:30;2.30;99.90
48728;DHT22;34527;45.618;5.130;2023-02-07T01:15:56;2.20;99.90
48728;DHT22;34527;45.618;5.130;2023-02-07T01:18:22;2.10;99.90
48728;DHT22;34527;45.618;5.130;2023-02-07T01:20:48;2.20;99.90
48728;DHT22;34527;45.618;5.130;2023-02-07T01:23:13;2.20;99.90
48728;DHT22;34527;45.618;5.130;2023-02-07T01:25:40;2.20;99.90
48728;DHT22;34527;45.618;5.130;2023-02-07T01:28:08;2.10;99.90
48728;DHT22;34527;45.618;5.130;2023-02-07T01:30:34;2.10;99.90
48728;DHT22;34527;45.618;5.130;2023-02-07T01:33:00;2.10;99.90
48728;DHT22;34527;45.618;5.130;2023-02-07T01:35:25;2.10;99.90
48728;DHT22;34527;45.618;5.130;2023-02-07T01:37:51;2.10;99.90
48728;DHT22;34527;45.618;5.130;2023-02-07T01:40:17;2.00;99.90
48728;DHT22;34527;45.618;5.130;2023-02-07T01:42:42;2.10;99.90
48728;DHT22;34527;45.618;5.130;2023-02-07T01:47:35;2.10;99.90
48728;DHT22;34527;45.618;5.130;2023-02-07T01:50:02;2.10;99.90
48728;DHT22;34527;45.618;5.130;2023-02-07T01:52:35;2.10;99.90
48728;DHT22;34527;45.618;5.130;2023-02-07T01:55:06;2.10;99.90
48728;DHT22;34527;45.618;5.130;2023-02-07T01:57:33;2.10;99.90
48728;DHT22;34527;45.618;5.130;2023-02-07T01:59:59;2.10;99.90
48728;DHT22;34527;45.618;5.130;2023-02-07T02:02:29;2.10;99.90
48728;DHT22;34527;45.618;5.130;2023-02-07T02:04:56;2.10;99.90
48728;DHT22;34527;45.618;5.130;2023-02-07T02:07:23;2.10;99.90
48728;DHT22;34527;45.618;5.130;2023-02-07T02:09:49;2.10;99.90
48728;DHT22;34527;45.618;5.130;2023-02-07T02:26:12;2.00;99.90
48728;DHT22;34527;45.618;5.130;2023-02-07T02:34:48;1.90;99.90
48728;DHT22;34527;45.618;5.130;2023-02-07T02:46:08;2.00;99.90
48728;DHT22;34527;45.618;5.130;2023-02-07T02:48:35;2.10;99.90
48728;DHT22;34527;45.618;5.130;2023-02-07T02:51:01;2.10;99.90
48728;DHT22;34527;45.618;5.130;2023-02-07T02:53:28;2.10;99.90
48728;DHT22;34527;45.618;5.130;2023-02-07T03:01:36;2.10;99.90
48728;DHT22;34527;45.618;5.130;2023-02-07T03:09:53;2.30;99.90
48728;DHT22;34527;45.618;5.130;2023-02-07T03:12:28;2.30;99.90
48728;DHT22;34527;45.618;5.130;2023-02-07T03:17:43;2.30;99.90
48728;DHT22;34527;45.618;5.130;2023-02-07T03:20:21;2.30;99.90
48728;DHT22;34527;45.618;5.130;2023-02-07T03:22:50;2.30;99.90
48728;DHT22;34527;45.618;5.130;2023-02-07T03:25:18;2.30;99.90
48728;DHT22;34527;45.618;5.130;2023-02-07T03:27:45;2.30;99.90
48728;DHT22;34527;45.618;5.130;2023-02-07T03:30:16;2.30;99.90
48728;DHT22;34527;45.618;5.130;2023-02-07T03:32:47;2.40;99.90
48728;DHT22;34527;45.618;5.130;2023-02-07T03:35:24;2.40;99.90
48728;DHT22;34527;45.618;5.130;2023-02-07T03:38:00;2.30;99.90
48728;DHT22;34527;45.618;5.130;2023-02-07T03:40:28;2.30;99.90
48728;DHT22;34527;45.618;5.130;2023-02-07T03:43:01;2.30;99.90
48728;DHT22;34527;45.618;5.130;2023-02-07T03:45:28;2.30;99.90
48728;DHT22;34527;45.618;5.130;2023-02-07T03:47:54;2.30;99.90
48728;DHT22;34527;45.618;5.130;2023-02-07T03:50:20;2.30;99.90
48728;DHT22;34527;45.618;5.130;2023-02-07T03:52:46;2.30;99.90
48728;DHT22;34527;45.618;5.130;2023-02-07T03:55:11;2.20;99.90
48728;DHT22;34527;45.618;5.130;2023-02-07T03:57:37;2.20;99.90
48728;DHT22;34527;45.618;5.130;2023-02-07T04:00:04;2.30;99.90
48728;DHT22;34527;45.618;5.130;2023-02-07T04:02:30;2.30;99.90
48728;DHT22;34527;45.618;5.130;2023-02-07T04:04:55;2.20;99.90
48728;DHT22;34527;45.618;5.130;2023-02-07T04:07:21;2.20;99.90
48728;DHT22;34527;45.618;5.130;2023-02-07T04:09:46;2.30;99.90
48728;DHT22;34527;45.618;5.130;2023-02-07T04:12:12;2.30;99.90
48728;DHT22;34527;45.618;5.130;2023-02-07T04:14:38;2.20;99.90
48728;DHT22;34527;45.618;5.130;2023-02-07T04:17:03;2.30;99.90
48728;DHT22;34527;45.618;5.130;2023-02-07T04:19:29;2.30;99.90
48728;DHT22;34527;45.618;5.130;2023-02-07T04:21:54;2.30;99.90
48728;DHT22;34527;45.618;5.130;2023-02-07T04:24:20;2.30;99.90
48728;DHT22;34527;45.618;5.130;2023-02-07T04:26:45;2.20;99.90
48728;DHT22;34527;45.618;5.130;2023-02-07T04:29:11;2.10;99.90
48728;DHT22;34527;45.618;5.130;2023-02-07T04:31:37;2.10;99.90
48728;DHT22;34527;45.618;5.130;2023-02-07T04:34:03;2.00;99.90
48728;DHT22;34527;45.618;5.130;2023-02-07T04:36:30;2.00;99.90
48728;DHT22;34527;45.618;5.130;2023-02-07T04:38:56;2.10;99.90
48728;DHT22;34527;45.618;5.130;2023-02-07T04:41:22;2.20;99.90
48728;DHT22;34527;45.618;5.130;2023-02-07T04:43:47;2.20;99.90
48728;DHT22;34527;45.618;5.130;2023-02-07T04:46:13;2.10;99.90
48728;DHT22;34527;45.618;5.130;2023-02-07T04:48:39;2.00;99.90
48728;DHT22;34527;45.618;5.130;2023-02-07T04:51:05;2.00;99.90
48728;DHT22;34527;45.618;5.130;2023-02-07T04:53:31;1.90;99.90
48728;DHT22;34527;45.618;5.130;2023-02-07T04:55:57;1.80;99.90
48728;DHT22;34527;45.618;5.130;2023-02-07T04:58:23;2.00;99.90
48728;DHT22;34527;45.618;5.130;2023-02-07T05:00:48;2.10;99.90
48728;DHT22;34527;45.618;5.130;2023-02-07T05:03:14;2.00;99.90
48728;DHT22;34527;45.618;5.130;2023-02-07T05:05:41;2.10;99.90
48728;DHT22;34527;45.618;5.130;2023-02-07T05:08:08;2.10;99.90
48728;DHT22;34527;45.618;5.130;2023-02-07T05:10:34;2.20;99.90
48728;DHT22;34527;45.618;5.130;2023-02-07T05:13:00;2.20;99.90
48728;DHT22;34527;45.618;5.130;2023-02-07T05:15:26;2.20;99.90
48728;DHT22;34527;45.618;5.130;2023-02-07T05:17:52;2.20;99.90
48728;DHT22;34527;45.618;5.130;2023-02-07T05:20:19;2.10;99.90
48728;DHT22;34527;45.618;5.130;2023-02-07T05:22:44;2.20;99.90
48728;DHT22;34527;45.618;5.130;2023-02-07T05:25:10;2.10;99.90
48728;DHT22;34527;45.618;5.130;2023-02-07T05:27:36;2.10;99.90
48728;DHT22;34527;45.618;5.130;2023-02-07T05:30:02;2.10;99.90
48728;DHT22;34527;45.618;5.130;2023-02-07T05:32:28;2.20;99.90
48728;DHT22;34527;45.618;5.130;2023-02-07T05:35:12;2.20;99.90
48728;DHT22;34527;45.618;5.130;2023-02-07T05:37:38;2.10;99.90
48728;DHT22;34527;45.618;5.130;2023-02-07T05:40:04;1.90;99.90
48728;DHT22;34527;45.618;5.130;2023-02-07T05:42:29;1.90;99.90
48728;DHT22;34527;45.618;5.130;2023-02-07T05:44:55;1.90;99.90
48728;DHT22;34527;45.618;5.130;2023-02-07T05:47:21;1.80;99.90
48728;DHT22;34527;45.618;5.130;2023-02-07T05:49:46;1.90;99.90
48728;DHT22;34527;45.618;5.130;2023-02-07T05:52:12;1.80;99.90
48728;DHT22;34527;45.618;5.130;2023-02-07T05:54:38;1.90;99.90
48728;DHT22;34527;45.618;5.130;2023-02-07T05:57:03;2.00;99.90
48728;DHT22;34527;45.618;5.130;2023-02-07T05:59:29;1.90;99.90
48728;DHT22;34527;45.618;5.130;2023-02-07T06:01:54;1.80;99.90
48728;DHT22;34527;45.618;5.130;2023-02-07T06:04:20;1.90;99.90
48728;DHT22;34527;45.618;5.130;2023-02-07T06:06:46;1.90;99.90
48728;DHT22;34527;45.618;5.130;2023-02-07T06:09:12;1.80;99.90
48728;DHT22;34527;45.618;5.130;2023-02-07T06:11:37;1.80;99.90
48728;DHT22;34527;45.618;5.130;2023-02-07T06:14:03;2.00;99.90
48728;DHT22;34527;45.618;5.130;2023-02-07T06:16:28;1.80;99.90
48728;DHT22;34527;45.618;5.130;2023-02-07T06:18:54;1.90;99.90
48728;DHT22;34527;45.618;5.130;2023-02-07T06:21:20;2.00;99.90
48728;DHT22;34527;45.618;5.130;2023-02-07T06:23:45;2.00;99.90
48728;DHT22;34527;45.618;5.130;2023-02-07T06:26:13;2.00;99.90
48728;DHT22;34527;45.618;5.130;2023-02-07T06:28:39;1.90;99.90
48728;DHT22;34527;45.618;5.130;2023-02-07T06:31:05;2.00;99.90
48728;DHT22;34527;45.618;5.130;2023-02-07T06:33:30;2.00;99.90
48728;DHT22;34527;45.618;5.130;2023-02-07T06:35:56;1.90;99.90
48728;DHT22;34527;45.618;5.130;2023-02-07T06:38:22;1.80;99.90
48728;DHT22;34527;45.618;5.130;2023-02-07T06:40:48;1.70;99.90
48728;DHT22;34527;45.618;5.130;2023-02-07T06:43:13;1.60;99.90
48728;DHT22;34527;45.618;5.130;2023-02-07T06:45:39;1.70;99.90
48728;DHT22;34527;45.618;5.130;2023-02-07T06:48:05;1.70;99.90
48728;DHT22;34527;45.618;5.130;2023-02-07T06:50:31;1.70;99.90
48728;DHT22;34527;45.618;5.130;2023-02-07T06:52:57;1.70;99.90
48728;DHT22;34527;45.618;5.130;2023-02-07T06:55:27;1.60;99.90
48728;DHT22;34527;45.618;5.130;2023-02-07T06:57:54;1.50;99.90
48728;DHT22;34527;45.618;5.130;2023-02-07T07:00:19;1.50;99.90
48728;DHT22;34527;45.618;5.130;2023-02-07T07:02:47;1.40;99.90
48728;DHT22;34527;45.618;5.130;2023-02-07T07:05:13;1.30;99.90
48728;DHT22;34527;45.618;5.130;2023-02-07T07:07:38;1.20;99.90
48728;DHT22;34527;45.618;5.130;2023-02-07T07:10:05;1.20;99.90
48728;DHT22;34527;45.618;5.130;2023-02-07T07:12:30;1.10;99.90
48728;DHT22;34527;45.618;5.130;2023-02-07T07:14:56;1.10;99.90
48728;DHT22;34527;45.618;5.130;2023-02-07T07:17:22;1.10;99.90
48728;DHT22;34527;45.618;5.130;2023-02-07T07:19:48;1.10;99.90
48728;DHT22;34527;45.618;5.130;2023-02-07T07:22:13;1.10;99.90
48728;DHT22;34527;45.618;5.130;2023-02-07T07:24:39;1.10;99.90
48728;DHT22;34527;45.618;5.130;2023-02-07T07:27:05;1.10;99.90
48728;DHT22;34527;45.618;5.130;2023-02-07T07:29:30;1.00;99.90
48728;DHT22;34527;45.618;5.130;2023-02-07T07:31:56;1.10;99.90
48728;DHT22;34527;45.618;5.130;2023-02-07T07:34:21;1.10;99.90
48728;DHT22;34527;45.618;5.130;2023-02-07T07:36:47;1.00;99.90
48728;DHT22;34527;45.618;5.130;2023-02-07T07:39:13;1.00;99.90
48728;DHT22;34527;45.618;5.130;2023-02-07T07:41:39;1.00;99.90
48728;DHT22;34527;45.618;5.130;2023-02-07T07:44:04;1.10;99.90
48728;DHT22;34527;45.618;5.130;2023-02-07T07:46:30;1.10;99.90
48728;DHT22;34527;45.618;5.130;2023-02-07T07:48:56;1.20;99.90
48728;DHT22;34527;45.618;5.130;2023-02-07T07:51:21;1.20;99.90
48728;DHT22;34527;45.618;5.130;2023-02-07T07:53:47;1.20;99.90
48728;DHT22;34527;45.618;5.130;2023-02-07T07:56:13;1.20;99.90
48728;DHT22;34527;45.618;5.130;2023-02-07T07:58:39;1.30;99.90
48728;DHT22;34527;45.618;5.130;2023-02-07T08:01:04;1.30;99.90
48728;DHT22;34527;45.618;5.130;2023-02-07T08:03:30;1.30;99.90
48728;DHT22;34527;45.618;5.130;2023-02-07T08:05:56;1.30;99.90
48728;DHT22;34527;45.618;5.130;2023-02-07T08:08:21;1.30;99.90
48728;DHT22;34527;45.618;5.130;2023-02-07T08:10:47;1.40;99.90
48728;DHT22;34527;45.618;5.130;2023-02-07T08:13:13;1.40;99.90
48728;DHT22;34527;45.618;5.130;2023-02-07T08:15:41;1.50;99.90
48728;DHT22;34527;45.618;5.130;2023-02-07T08:18:07;1.50;99.90
48728;DHT22;34527;45.618;5.130;2023-02-07T08:20:33;1.60;99.90
48728;DHT22;34527;45.618;5.130;2023-02-07T08:22:59;1.70;99.90
48728;DHT22;34527;45.618;5.130;2023-02-07T08:25:25;1.60;99.90
48728;DHT22;34527;45.618;5.130;2023-02-07T08:27:51;1.60;99.90
48728;DHT22;34527;45.618;5.130;2023-02-07T08:30:17;1.50;99.90
48728;DHT22;34527;45.618;5.130;2023-02-07T08:32:43;1.60;99.90
48728;DHT22;34527;45.618;5.130;2023-02-07T08:35:09;1.80;99.90
48728;DHT22;34527;45.618;5.130;2023-02-07T08:37:35;1.90;99.90
48728;DHT22;34527;45.618;5.130;2023-02-07T08:40:01;1.90;99.90
48728;DHT22;34527;45.618;5.130;2023-02-07T08:42:27;1.90;99.90
48728;DHT22;34527;45.618;5.130;2023-02-07T08:44:53;2.10;99.90
48728;DHT22;34527;45.618;5.130;2023-02-07T08:47:18;2.20;99.90
48728;DHT22;34527;45.618;5.130;2023-02-07T08:49:44;2.20;99.90
48728;DHT22;34527;45.618;5.130;2023-02-07T08:52:11;2.10;99.90
48728;DHT22;34527;45.618;5.130;2023-02-07T08:54:36;2.20;99.90
48728;DHT22;34527;45.618;5.130;2023-02-07T08:57:02;2.40;99.90
48728;DHT22;34527;45.618;5.130;2023-02-07T08:59:28;2.40;99.90
48728;DHT22;34527;45.618;5.130;2023-02-07T09:01:54;2.40;99.90
48728;DHT22;34527;45.618;5.130;2023-02-07T09:04:19;2.90;99.90
48728;DHT22;34527;45.618;5.130;2023-02-07T09:06:45;2.70;99.90
48728;DHT22;34527;45.618;5.130;2023-02-07T09:09:11;2.70;99.90
48728;DHT22;34527;45.618;5.130;2023-02-07T09:11:37;2.60;99.90
48728;DHT22;34527;45.618;5.130;2023-02-07T09:14:03;2.60;99.90
48728;DHT22;34527;45.618;5.130;2023-02-07T09:16:29;2.60;99.90
48728;DHT22;34527;45.618;5.130;2023-02-07T09:18:54;2.60;99.90
48728;DHT22;34527;45.618;5.130;2023-02-07T09:21:21;2.70;99.90
48728;DHT22;34527;45.618;5.130;2023-02-07T09:23:47;2.70;99.90
48728;DHT22;34527;45.618;5.130;2023-02-07T09:26:19;2.70;99.90
48728;DHT22;34527;45.618;5.130;2023-02-07T09:28:45;2.90;99.90
48728;DHT22;34527;45.618;5.130;2023-02-07T09:31:13;2.90;99.90
48728;DHT22;34527;45.618;5.130;2023-02-07T09:33:39;2.90;99.90
48728;DHT22;34527;45.618;5.130;2023-02-07T09:36:20;2.90;99.90
48728;DHT22;34527;45.618;5.130;2023-02-07T09:38:46;2.90;99.90
48728;DHT22;34527;45.618;5.130;2023-02-07T09:43:54;3.10;99.90
48728;DHT22;34527;45.618;5.130;2023-02-07T09:46:29;3.20;99.90
48728;DHT22;34527;45.618;5.130;2023-02-07T09:51:32;3.50;99.90
48728;DHT22;34527;45.618;5.130;2023-02-07T09:54:05;3.40;99.90
48728;DHT22;34527;45.618;5.130;2023-02-07T09:56:32;3.50;99.90
48728;DHT22;34527;45.618;5.130;2023-02-07T09:59:44;3.60;99.90
48728;DHT22;34527;45.618;5.130;2023-02-07T10:01:58;3.70;99.90
48728;DHT22;34527;45.618;5.130;2023-02-07T10:04:35;3.80;99.90
48728;DHT22;34527;45.618;5.130;2023-02-07T10:07:04;3.80;99.90
48728;DHT22;34527;45.618;5.130;2023-02-07T10:09:37;3.80;99.90
48728;DHT22;34527;45.618;5.130;2023-02-07T10:12:16;3.70;99.90
48728;DHT22;34527;45.618;5.130;2023-02-07T10:20:21;4.00;99.90
48728;DHT22;34527;45.618;5.130;2023-02-07T10:30:44;4.20;99.90
48728;DHT22;34527;45.618;5.130;2023-02-07T10:33:16;4.30;99.90
48728;DHT22;34527;45.618;5.130;2023-02-07T10:35:44;4.20;99.90
48728;DHT22;34527;45.618;5.130;2023-02-07T10:38:42;4.20;99.90
48728;DHT22;34527;45.618;5.130;2023-02-07T10:41:36;4.20;99.90
48728;DHT22;34527;45.618;5.130;2023-02-07T10:44:04;4.20;99.90
48728;DHT22;34527;45.618;5.130;2023-02-07T10:46:32;4.30;99.90
48728;DHT22;34527;45.618;5.130;2023-02-07T10:48:59;4.40;99.90
48728;DHT22;34527;45.618;5.130;2023-02-07T10:51:36;4.40;99.90
48728;DHT22;34527;45.618;5.130;2023-02-07T10:54:06;4.40;99.90
48728;DHT22;34527;45.618;5.130;2023-02-07T10:56:34;4.40;99.90
48728;DHT22;34527;45.618;5.130;2023-02-07T10:59:02;4.50;99.90
48728;DHT22;34527;45.618;5.130;2023-02-07T11:01:30;4.50;99.90
48728;DHT22;34527;45.618;5.130;2023-02-07T11:03:57;4.40;99.90
48728;DHT22;34527;45.618;5.130;2023-02-07T11:06:28;4.40;99.90
48728;DHT22;34527;45.618;5.130;2023-02-07T11:09:20;4.50;99.90
48728;DHT22;34527;45.618;5.130;2023-02-07T11:11:47;4.60;99.90
48728;DHT22;34527;45.618;5.130;2023-02-07T11:14:20;4.70;99.90
48728;DHT22;34527;45.618;5.130;2023-02-07T11:16:52;4.70;99.90
48728;DHT22;34527;45.618;5.130;2023-02-07T11:19:21;4.70;99.90
48728;DHT22;34527;45.618;5.130;2023-02-07T11:21:48;4.70;99.90
48728;DHT22;34527;45.618;5.130;2023-02-07T11:24:26;4.80;99.90
48728;DHT22;34527;45.618;5.130;2023-02-07T11:29:24;4.80;99.90
48728;DHT22;34527;45.618;5.130;2023-02-07T11:31:51;4.90;99.90
48728;DHT22;34527;45.618;5.130;2023-02-07T11:34:48;5.00;99.90
48728;DHT22;34527;45.618;5.130;2023-02-07T11:42:40;5.20;99.90
48728;DHT22;34527;45.618;5.130;2023-02-07T11:45:13;5.30;99.90
48728;DHT22;34527;45.618;5.130;2023-02-07T11:47:41;5.40;99.90
48728;DHT22;34527;45.618;5.130;2023-02-07T11:50:19;5.30;99.90
48728;DHT22;34527;45.618;5.130;2023-02-07T11:52:50;5.40;99.90
48728;DHT22;34527;45.618;5.130;2023-02-07T11:55:24;5.50;99.90
48728;DHT22;34527;45.618;5.130;2023-02-07T11:57:50;5.60;99.90
48728;DHT22;34527;45.618;5.130;2023-02-07T12:00:28;5.50;99.90
48728;DHT22;34527;45.618;5.130;2023-02-07T12:03:05;5.60;99.90
48728;DHT22;34527;45.618;5.130;2023-02-07T12:05:38;5.60;99.90
48728;DHT22;34527;45.618;5.130;2023-02-07T12:08:15;5.60;99.90
48728;DHT22;34527;45.618;5.130;2023-02-07T12:10:45;5.60;99.90
48728;DHT22;34527;45.618;5.130;2023-02-07T12:13:20;5.60;99.90
48728;DHT22;34527;45.618;5.130;2023-02-07T12:15:51;5.80;99.90
48728;DHT22;34527;45.618;5.130;2023-02-07T12:21:09;5.90;99.90
48728;DHT22;34527;45.618;5.130;2023-02-07T12:23:53;5.80;99.90
48728;DHT22;34527;45.618;5.130;2023-02-07T12:26:29;6.00;99.90
48728;DHT22;34527;45.618;5.130;2023-02-07T12:31:59;5.80;99.90
48728;DHT22;34527;45.618;5.130;2023-02-07T12:37:02;5.90;99.90
48728;DHT22;34527;45.618;5.130;2023-02-07T12:39:41;6.00;99.90
48728;DHT22;34527;45.618;5.130;2023-02-07T12:45:00;6.10;99.90
48728;DHT22;34527;45.618;5.130;2023-02-07T12:50:58;6.20;99.90
48728;DHT22;34527;45.618;5.130;2023-02-07T12:53:38;6.20;99.90
48728;DHT22;34527;45.618;5.130;2023-02-07T12:58:52;6.20;99.90
48728;DHT22;34527;45.618;5.130;2023-02-07T13:01:48;6.30;99.90
48728;DHT22;34527;45.618;5.130;2023-02-07T13:10:18;6.20;99.90
48728;DHT22;34527;45.618;5.130;2023-02-07T13:15:22;6.50;99.90
48728;DHT22;34527;45.618;5.130;2023-02-07T13:18:04;6.50;99.90
48728;DHT22;34527;45.618;5.130;2023-02-07T13:20:52;6.50;99.90
48728;DHT22;34527;45.618;5.130;2023-02-07T13:23:21;6.40;99.90
48728;DHT22;34527;45.618;5.130;2023-02-07T13:25:52;6.40;99.90
48728;DHT22;34527;45.618;5.130;2023-02-07T13:28:47;6.40;99.90
48728;DHT22;34527;45.618;5.130;2023-02-07T13:31:21;6.40;99.90
48728;DHT22;34527;45.618;5.130;2023-02-07T13:33:49;6.50;99.90
48728;DHT22;34527;45.618;5.130;2023-02-07T13:36:40;6.50;99.90
48728;DHT22;34527;45.618;5.130;2023-02-07T13:42:25;6.50;99.90
48728;DHT22;34527;45.618;5.130;2023-02-07T13:47:30;6.60;99.90
48728;DHT22;34527;45.618;5.130;2023-02-07T13:55:40;6.60;99.90
48728;DHT22;34527;45.618;5.130;2023-02-07T13:58:49;6.60;99.90
48728;DHT22;34527;45.618;5.130;2023-02-07T14:01:33;6.60;99.90
48728;DHT22;34527;45.618;5.130;2023-02-07T14:04:09;6.60;99.90
48728;DHT22;34527;45.618;5.130;2023-02-07T14:09:44;6.70;99.90
48728;DHT22;34527;45.618;5.130;2023-02-07T14:12:30;6.70;99.90
48728;DHT22;34527;45.618;5.130;2023-02-07T14:31:49;7.00;99.90
48728;DHT22;34527;45.618;5.130;2023-02-07T14:34:19;7.00;99.90
48728;DHT22;34527;45.618;5.130;2023-02-07T14:36:49;7.00;99.90
48728;DHT22;34527;45.618;5.130;2023-02-07T14:41:47;7.00;99.90
48728;DHT22;34527;45.618;5.130;2023-02-07T14:44:23;7.00;99.90
48728;DHT22;34527;45.618;5.130;2023-02-07T14:46:52;7.10;99.90
48728;DHT22;34527;45.618;5.130;2023-02-07T14:49:26;7.10;99.90
48728;DHT22;34527;45.618;5.130;2023-02-07T14:51:59;7.20;99.90
48728;DHT22;34527;45.618;5.130;2023-02-07T14:54:51;7.20;99.90
48728;DHT22;34527;45.618;5.130;2023-02-07T15:00:09;7.20;99.90
48728;DHT22;34527;45.618;5.130;2023-02-07T15:02:53;7.20;99.90
48728;DHT22;34527;45.618;5.130;2023-02-07T15:05:31;7.30;99.90
48728;DHT22;34527;45.618;5.130;2023-02-07T15:10:38;7.30;99.90
48728;DHT22;34527;45.618;5.130;2023-02-07T15:13:16;7.30;99.90
48728;DHT22;34527;45.618;5.130;2023-02-07T15:18:18;7.40;99.90
48728;DHT22;34527;45.618;5.130;2023-02-07T15:20:53;7.30;99.90
48728;DHT22;34527;45.618;5.130;2023-02-07T15:23:19;7.30;99.90
48728;DHT22;34527;45.618;5.130;2023-02-07T15:25:46;7.40;99.90
48728;DHT22;34527;45.618;5.130;2023-02-07T15:31:19;7.30;99.90
48728;DHT22;34527;45.618;5.130;2023-02-07T15:33:47;7.40;99.90
48728;DHT22;34527;45.618;5.130;2023-02-07T15:38:54;7.30;99.90
48728;DHT22;34527;45.618;5.130;2023-02-07T15:41:19;7.30;99.90
48728;DHT22;34527;45.618;5.130;2023-02-07T15:43:59;7.20;99.90
48728;DHT22;34527;45.618;5.130;2023-02-07T15:46:41;7.30;99.90
48728;DHT22;34527;45.618;5.130;2023-02-07T15:49:07;7.30;99.90
48728;DHT22;34527;45.618;5.130;2023-02-07T15:51:37;7.30;99.90
48728;DHT22;34527;45.618;5.130;2023-02-07T15:54:05;7.20;99.90
48728;DHT22;34527;45.618;5.130;2023-02-07T15:56:31;7.20;99.90
48728;DHT22;34527;45.618;5.130;2023-02-07T15:59:08;7.20;99.90
48728;DHT22;34527;45.618;5.130;2023-02-07T16:01:35;7.20;99.90
48728;DHT22;34527;45.618;5.130;2023-02-07T16:04:03;7.20;99.90
48728;DHT22;34527;45.618;5.130;2023-02-07T16:06:29;7.20;99.90
48728;DHT22;34527;45.618;5.130;2023-02-07T16:08:59;7.20;99.90
48728;DHT22;34527;45.618;5.130;2023-02-07T16:16:40;7.00;99.90
48728;DHT22;34527;45.618;5.130;2023-02-07T16:21:40;7.00;99.90
48728;DHT22;34527;45.618;5.130;2023-02-07T16:24:12;7.00;99.90
48728;DHT22;34527;45.618;5.130;2023-02-07T16:26:39;6.90;99.90
48728;DHT22;34527;45.618;5.130;2023-02-07T16:29:06;6.90;99.90
48728;DHT22;34527;45.618;5.130;2023-02-07T16:31:32;6.80;99.90
48728;DHT22;34527;45.618;5.130;2023-02-07T16:33:58;6.80;99.90
48728;DHT22;34527;45.618;5.130;2023-02-07T16:36:23;6.80;99.90
48728;DHT22;34527;45.618;5.130;2023-02-07T16:38:50;6.70;99.90
48728;DHT22;34527;45.618;5.130;2023-02-07T16:41:24;6.70;99.90
48728;DHT22;34527;45.618;5.130;2023-02-07T16:43:53;6.50;99.90
48728;DHT22;34527;45.618;5.130;2023-02-07T16:46:19;6.50;99.90
48728;DHT22;34527;45.618;5.130;2023-02-07T16:48:44;6.40;99.90
48728;DHT22;34527;45.618;5.130;2023-02-07T16:51:10;6.40;99.90
48728;DHT22;34527;45.618;5.130;2023-02-07T16:53:35;6.40;99.90
48728;DHT22;34527;45.618;5.130;2023-02-07T16:56:02;6.20;99.90
48728;DHT22;34527;45.618;5.130;2023-02-07T16:58:29;6.20;99.90
48728;DHT22;34527;45.618;5.130;2023-02-07T17:00:57;6.10;99.90
48728;DHT22;34527;45.618;5.130;2023-02-07T17:03:23;6.10;99.90
48728;DHT22;34527;45.618;5.130;2023-02-07T17:05:49;6.10;99.90
48728;DHT22;34527;45.618;5.130;2023-02-07T17:08:16;6.10;99.90
48728;DHT22;34527;45.618;5.130;2023-02-07T17:10:48;6.00;99.90
48728;DHT22;34527;45.618;5.130;2023-02-07T17:13:15;6.00;99.90
48728;DHT22;34527;45.618;5.130;2023-02-07T17:15:40;6.00;99.90
48728;DHT22;34527;45.618;5.130;2023-02-07T17:18:06;6.00;99.90
48728;DHT22;34527;45.618;5.130;2023-02-07T17:20:33;5.90;99.90
48728;DHT22;34527;45.618;5.130;2023-02-07T17:22:59;5.90;99.90
48728;DHT22;34527;45.618;5.130;2023-02-07T17:25:27;5.90;99.90
48728;DHT22;34527;45.618;5.130;2023-02-07T17:27:54;5.80;99.90
48728;DHT22;34527;45.618;5.130;2023-02-07T17:30:27;5.70;99.90
48728;DHT22;34527;45.618;5.130;2023-02-07T17:32:53;5.70;99.90
48728;DHT22;34527;45.618;5.130;2023-02-07T17:35:20;5.70;99.90
48728;DHT22;34527;45.618;5.130;2023-02-07T17:37:46;5.70;99.90
48728;DHT22;34527;45.618;5.130;2023-02-07T17:42:46;5.60;99.90
48728;DHT22;34527;45.618;5.130;2023-02-07T17:45:12;5.50;99.90
48728;DHT22;34527;45.618;5.130;2023-02-07T17:47:37;5.50;99.90
48728;DHT22;34527;45.618;5.130;2023-02-07T17:50:03;5.50;99.90
48728;DHT22;34527;45.618;5.130;2023-02-07T17:52:29;5.40;99.90
48728;DHT22;34527;45.618;5.130;2023-02-07T17:54:55;5.40;99.90
48728;DHT22;34527;45.618;5.130;2023-02-07T17:57:20;5.40;99.90
48728;DHT22;34527;45.618;5.130;2023-02-07T17:59:46;5.30;99.90
48728;DHT22;34527;45.618;5.130;2023-02-07T18:02:12;5.30;99.90
48728;DHT22;34527;45.618;5.130;2023-02-07T18:04:37;5.20;99.90
48728;DHT22;34527;45.618;5.130;2023-02-07T18:07:03;5.20;99.90
48728;DHT22;34527;45.618;5.130;2023-02-07T18:09:28;5.10;99.90
48728;DHT22;34527;45.618;5.130;2023-02-07T18:11:54;5.10;99.90
48728;DHT22;34527;45.618;5.130;2023-02-07T18:14:20;5.10;99.90
48728;DHT22;34527;45.618;5.130;2023-02-07T18:16:45;5.10;99.90
48728;DHT22;34527;45.618;5.130;2023-02-07T18:19:15;5.10;99.90
48728;DHT22;34527;45.618;5.130;2023-02-07T18:21:41;5.10;99.90
48728;DHT22;34527;45.618;5.130;2023-02-07T18:24:07;5.00;99.90
48728;DHT22;34527;45.618;5.130;2023-02-07T18:26:33;5.00;99.90
48728;DHT22;34527;45.618;5.130;2023-02-07T18:28:59;5.00;99.90